PWSweather.com
Personal Weather Stations
Station Observations
IFREISTO2
Freiston, FreistonGB PE22 0QJ

FreistonFreistonGB PE22 0QJ

Lat: 52.964, Lon: 0.041

Elevation: 16

Station Type: Fine Offset

http://www.midlifedad.me.uk/weather

High Low Average
Temperature 69.8°F21.0°C 53.4°F11.9°C 61.7°F16.5°C
Dew Point 53.6°F12.0°C 45.9°F7.7°C 50.2°F10.1°C
Winds 14.4 mph 23.2 kmh 3.4 mph 5.5 kmh 8.0 mph WSW12.9 kmh WSW
Wind Gusts 25.9 mph41.7 kmh 6.0 mph9.7 kmh 15.0 mph24.1 kmh
Humidity 90% 50% 67%
Pressure 30.21 in1023.0 mb 29.96 in1014.6 mb -
Precipitation 0.00 in0.0 mm - -
Hour Temp Dew Point Humidity Winds Wind Gusts Pressure Precip Precip Rate Daily Precip Total
12:00 AM 56.5°F13.6°C 50.7°F10.4°C 81% 4.2 mph SW6.8 kmh SW 6.9 mph11.1 kmh 29.97 in1014.9 mb 0.00 in0.0 mm 0.00 in0.0 mm 0.00 in0.0 mm
12:05 AM 56.7°F13.7°C 50.9°F10.5°C 81% 4.7 mph SW7.6 kmh SW 7.6 mph12.2 kmh 29.96 in1014.6 mb 0.00 in0.0 mm 0.00 in0.0 mm 0.00 in0.0 mm
12:10 AM 56.5°F13.6°C 50.7°F10.4°C 81% 4.8 mph SW7.7 kmh SW 7.6 mph12.2 kmh 29.96 in1014.6 mb 0.00 in0.0 mm 0.00 in0.0 mm 0.00 in0.0 mm
12:15 AM 56.5°F13.6°C 50.7°F10.4°C 81% 4.7 mph SW7.6 kmh SW 8.3 mph13.4 kmh 29.96 in1014.6 mb 0.00 in0.0 mm 0.00 in0.0 mm 0.00 in0.0 mm
12:20 AM 56.5°F13.6°C 50.7°F10.4°C 81% 4.6 mph SW7.4 kmh SW 9.8 mph15.8 kmh 29.96 in1014.6 mb 0.00 in0.0 mm 0.00 in0.0 mm 0.00 in0.0 mm
12:25 AM 56.1°F13.4°C 50.7°F10.4°C 82% 4.2 mph SW6.8 kmh SW 9.8 mph15.8 kmh 29.96 in1014.6 mb 0.00 in0.0 mm 0.00 in0.0 mm 0.00 in0.0 mm
12:30 AM 55.9°F13.3°C 50.5°F10.3°C 82% 3.9 mph SW6.3 kmh SW 6.9 mph11.1 kmh 29.96 in1014.6 mb 0.00 in0.0 mm 0.00 in0.0 mm 0.00 in0.0 mm
12:35 AM 56.1°F13.4°C 51.0°F10.6°C 83% 4.1 mph SW6.6 kmh SW 7.6 mph12.2 kmh 29.96 in1014.6 mb 0.00 in0.0 mm 0.00 in0.0 mm 0.00 in0.0 mm
12:40 AM 56.1°F13.4°C 51.4°F10.8°C 84% 4.3 mph SW6.9 kmh SW 7.6 mph12.2 kmh 29.96 in1014.6 mb 0.00 in0.0 mm 0.00 in0.0 mm 0.00 in0.0 mm
12:45 AM 56.1°F13.4°C 51.4°F10.8°C 84% 4.5 mph SW7.2 kmh SW 7.6 mph12.2 kmh 29.96 in1014.6 mb 0.00 in0.0 mm 0.00 in0.0 mm 0.00 in0.0 mm
12:50 AM 56.1°F13.4°C 51.7°F10.9°C 85% 4.6 mph WSW7.4 kmh WSW 7.6 mph12.2 kmh 29.96 in1014.6 mb 0.00 in0.0 mm 0.00 in0.0 mm 0.00 in0.0 mm
12:55 AM 55.9°F13.3°C 51.5°F10.8°C 85% 4.5 mph WSW7.2 kmh WSW 7.6 mph12.2 kmh 29.96 in1014.6 mb 0.00 in0.0 mm 0.00 in0.0 mm 0.00 in0.0 mm
01:00 AM 55.9°F13.3°C 51.5°F10.8°C 85% 4.5 mph SW7.2 kmh SW 7.6 mph12.2 kmh 29.96 in1014.6 mb 0.00 in0.0 mm 0.00 in0.0 mm 0.00 in0.0 mm
01:05 AM 55.8°F13.2°C 51.3°F10.7°C 85% 4.6 mph WSW7.4 kmh WSW 8.3 mph13.4 kmh 29.96 in1014.6 mb 0.00 in0.0 mm 0.00 in0.0 mm 0.00 in0.0 mm
01:10 AM 55.8°F13.2°C 51.3°F10.7°C 85% 4.7 mph W7.6 kmh W 8.3 mph13.4 kmh 29.96 in1014.6 mb 0.00 in0.0 mm 0.00 in0.0 mm 0.00 in0.0 mm
01:15 AM 55.8°F13.2°C 51.6°F10.9°C 86% 5.1 mph SW8.2 kmh SW 8.3 mph13.4 kmh 29.96 in1014.6 mb 0.00 in0.0 mm 0.00 in0.0 mm 0.00 in0.0 mm
01:20 AM 55.9°F13.3°C 51.8°F11.0°C 86% 5.2 mph SW8.4 kmh SW 9.8 mph15.8 kmh 29.96 in1014.6 mb 0.00 in0.0 mm 0.00 in0.0 mm 0.00 in0.0 mm
01:25 AM 55.9°F13.3°C 51.8°F11.0°C 86% 5.1 mph WSW8.2 kmh WSW 9.8 mph15.8 kmh 29.96 in1014.6 mb 0.00 in0.0 mm 0.00 in0.0 mm 0.00 in0.0 mm
01:30 AM 55.9°F13.3°C 51.8°F11.0°C 86% 5.1 mph WSW8.2 kmh WSW 9.8 mph15.8 kmh 29.96 in1014.6 mb 0.00 in0.0 mm 0.00 in0.0 mm 0.00 in0.0 mm
01:35 AM 55.9°F13.3°C 51.8°F11.0°C 86% 4.7 mph SW7.6 kmh SW 8.3 mph13.4 kmh 29.96 in1014.6 mb 0.00 in0.0 mm 0.00 in0.0 mm 0.00 in0.0 mm
01:40 AM 55.9°F13.3°C 51.8°F11.0°C 86% 4.7 mph SW7.6 kmh SW 9.8 mph15.8 kmh 29.96 in1014.6 mb 0.00 in0.0 mm 0.00 in0.0 mm 0.00 in0.0 mm
01:45 AM 55.9°F13.3°C 51.8°F11.0°C 86% 5.3 mph SW8.5 kmh SW 10.7 mph17.2 kmh 29.96 in1014.6 mb 0.00 in0.0 mm 0.00 in0.0 mm 0.00 in0.0 mm
01:50 AM 55.8°F13.2°C 51.6°F10.9°C 86% 5.2 mph SW8.4 kmh SW 10.7 mph17.2 kmh 29.96 in1014.6 mb 0.00 in0.0 mm 0.00 in0.0 mm 0.00 in0.0 mm
01:55 AM 55.8°F13.2°C 51.6°F10.9°C 86% 4.9 mph WSW7.9 kmh WSW 10.7 mph17.2 kmh 29.96 in1014.6 mb 0.00 in0.0 mm 0.00 in0.0 mm 0.00 in0.0 mm
02:00 AM 55.6°F13.1°C 51.5°F10.8°C 86% 5.2 mph SW8.4 kmh SW 10.7 mph17.2 kmh 29.96 in1014.6 mb 0.00 in0.0 mm 0.00 in0.0 mm 0.00 in0.0 mm
02:05 AM 55.6°F13.1°C 51.5°F10.8°C 86% 5.1 mph SW8.2 kmh SW 9.2 mph14.8 kmh 29.96 in1014.6 mb 0.00 in0.0 mm 0.00 in0.0 mm 0.00 in0.0 mm
02:10 AM 55.4°F13.0°C 51.3°F10.7°C 86% 5.1 mph SW8.2 kmh SW 9.2 mph14.8 kmh 29.96 in1014.6 mb 0.00 in0.0 mm 0.00 in0.0 mm 0.00 in0.0 mm
02:15 AM 55.4°F13.0°C 51.3°F10.7°C 86% 5.0 mph SW8.0 kmh SW 8.3 mph13.4 kmh 29.96 in1014.6 mb 0.00 in0.0 mm 0.00 in0.0 mm 0.00 in0.0 mm
02:20 AM 55.4°F13.0°C 51.3°F10.7°C 86% 5.3 mph SW8.5 kmh SW 8.3 mph13.4 kmh 29.96 in1014.6 mb 0.00 in0.0 mm 0.00 in0.0 mm 0.00 in0.0 mm
02:25 AM 55.2°F12.9°C 51.1°F10.6°C 86% 5.4 mph WSW8.7 kmh WSW 9.2 mph14.8 kmh 29.96 in1014.6 mb 0.00 in0.0 mm 0.00 in0.0 mm 0.00 in0.0 mm
02:30 AM 55.0°F12.8°C 50.9°F10.5°C 86% 5.2 mph SW8.4 kmh SW 9.2 mph14.8 kmh 29.96 in1014.6 mb 0.00 in0.0 mm 0.00 in0.0 mm 0.00 in0.0 mm
02:35 AM 55.0°F12.8°C 50.9°F10.5°C 86% 5.4 mph SW8.7 kmh SW 10.7 mph17.2 kmh 29.96 in1014.6 mb 0.00 in0.0 mm 0.00 in0.0 mm 0.00 in0.0 mm
02:40 AM 55.0°F12.8°C 50.9°F10.5°C 86% 6.2 mph SW10.0 kmh SW 12.1 mph19.5 kmh 29.96 in1014.6 mb 0.00 in0.0 mm 0.00 in0.0 mm 0.00 in0.0 mm
02:45 AM 55.0°F12.8°C 51.2°F10.7°C 87% 6.6 mph SW10.6 kmh SW 12.1 mph19.5 kmh 29.96 in1014.6 mb 0.00 in0.0 mm 0.00 in0.0 mm 0.00 in0.0 mm
02:50 AM 54.9°F12.7°C 51.1°F10.6°C 87% 6.0 mph WSW9.7 kmh WSW 10.7 mph17.2 kmh 29.96 in1014.6 mb 0.00 in0.0 mm 0.00 in0.0 mm 0.00 in0.0 mm
02:55 AM 54.7°F12.6°C 50.9°F10.5°C 87% 6.3 mph SW10.1 kmh SW 10.7 mph17.2 kmh 29.96 in1014.6 mb 0.00 in0.0 mm 0.00 in0.0 mm 0.00 in0.0 mm
03:00 AM 54.5°F12.5°C 50.7°F10.4°C 87% 6.3 mph WSW10.1 kmh WSW 10.7 mph17.2 kmh 29.96 in1014.6 mb 0.00 in0.0 mm 0.00 in0.0 mm 0.00 in0.0 mm
03:05 AM 54.5°F12.5°C 50.7°F10.4°C 87% 5.6 mph SW9.0 kmh SW 9.2 mph14.8 kmh 29.96 in1014.6 mb 0.00 in0.0 mm 0.00 in0.0 mm 0.00 in0.0 mm
03:10 AM 54.3°F12.4°C 50.5°F10.3°C 87% 5.1 mph SW8.2 kmh SW 8.3 mph13.4 kmh 29.96 in1014.6 mb 0.00 in0.0 mm 0.00 in0.0 mm 0.00 in0.0 mm
03:15 AM 54.1°F12.3°C 50.7°F10.4°C 88% 4.8 mph SW7.7 kmh SW 9.8 mph15.8 kmh 29.96 in1014.6 mb 0.00 in0.0 mm 0.00 in0.0 mm 0.00 in0.0 mm
03:20 AM 54.1°F12.3°C 50.7°F10.4°C 88% 4.9 mph SW7.9 kmh SW 9.8 mph15.8 kmh 29.96 in1014.6 mb 0.00 in0.0 mm 0.00 in0.0 mm 0.00 in0.0 mm
03:25 AM 54.0°F12.2°C 50.5°F10.3°C 88% 5.0 mph SW8.0 kmh SW 9.8 mph15.8 kmh 29.96 in1014.6 mb 0.00 in0.0 mm 0.00 in0.0 mm 0.00 in0.0 mm
03:30 AM 54.0°F12.2°C 50.5°F10.3°C 88% 4.8 mph SW7.7 kmh SW 9.8 mph15.8 kmh 29.96 in1014.6 mb 0.00 in0.0 mm 0.00 in0.0 mm 0.00 in0.0 mm
03:35 AM 54.0°F12.2°C 50.5°F10.3°C 88% 4.6 mph WSW7.4 kmh WSW 7.6 mph12.2 kmh 29.96 in1014.6 mb 0.00 in0.0 mm 0.00 in0.0 mm 0.00 in0.0 mm
03:40 AM 54.0°F12.2°C 50.8°F10.4°C 89% 4.7 mph SW7.6 kmh SW 8.3 mph13.4 kmh 29.97 in1014.9 mb 0.00 in0.0 mm 0.00 in0.0 mm 0.00 in0.0 mm
03:45 AM 54.0°F12.2°C 50.8°F10.4°C 89% 4.3 mph WSW6.9 kmh WSW 8.3 mph13.4 kmh 29.97 in1014.9 mb 0.00 in0.0 mm 0.00 in0.0 mm 0.00 in0.0 mm
03:50 AM 54.0°F12.2°C 50.8°F10.4°C 89% 3.8 mph WSW6.1 kmh WSW 6.9 mph11.1 kmh 29.97 in1014.9 mb 0.00 in0.0 mm 0.00 in0.0 mm 0.00 in0.0 mm
03:55 AM 54.0°F12.2°C 50.8°F10.4°C 89% 3.9 mph SW6.3 kmh SW 6.9 mph11.1 kmh 29.97 in1014.9 mb 0.00 in0.0 mm 0.00 in0.0 mm 0.00 in0.0 mm
04:00 AM 54.0°F12.2°C 50.8°F10.4°C 89% 3.8 mph SW6.1 kmh SW 6.0 mph9.7 kmh 29.97 in1014.9 mb 0.00 in0.0 mm 0.00 in0.0 mm 0.00 in0.0 mm
04:05 AM 54.0°F12.2°C 50.8°F10.4°C 89% 4.0 mph SW6.4 kmh SW 6.9 mph11.1 kmh 29.97 in1014.9 mb 0.00 in0.0 mm 0.00 in0.0 mm 0.00 in0.0 mm
04:10 AM 54.0°F12.2°C 50.8°F10.4°C 89% 4.3 mph SW6.9 kmh SW 6.9 mph11.1 kmh 29.98 in1015.2 mb 0.00 in0.0 mm 0.00 in0.0 mm 0.00 in0.0 mm
04:15 AM 54.1°F12.3°C 51.3°F10.7°C 90% 4.0 mph SW6.4 kmh SW 7.6 mph12.2 kmh 29.98 in1015.2 mb 0.00 in0.0 mm 0.00 in0.0 mm 0.00 in0.0 mm
04:20 AM 54.1°F12.3°C 51.3°F10.7°C 90% 4.3 mph SW6.9 kmh SW 7.6 mph12.2 kmh 29.97 in1014.9 mb 0.00 in0.0 mm 0.00 in0.0 mm 0.00 in0.0 mm
04:25 AM 54.3°F12.4°C 51.4°F10.8°C 90% 4.6 mph SW7.4 kmh SW 7.6 mph12.2 kmh 29.98 in1015.2 mb 0.00 in0.0 mm 0.00 in0.0 mm 0.00 in0.0 mm
04:30 AM 54.3°F12.4°C 51.4°F10.8°C 90% 4.6 mph SW7.4 kmh SW 7.6 mph12.2 kmh 29.97 in1014.9 mb 0.00 in0.0 mm 0.00 in0.0 mm 0.00 in0.0 mm
04:35 AM 54.3°F12.4°C 51.4°F10.8°C 90% 4.6 mph SW7.4 kmh SW 7.6 mph12.2 kmh 29.98 in1015.2 mb 0.00 in0.0 mm 0.00 in0.0 mm 0.00 in0.0 mm
04:40 AM 54.5°F12.5°C 51.6°F10.9°C 90% 4.3 mph SW6.9 kmh SW 7.6 mph12.2 kmh 29.98 in1015.2 mb 0.00 in0.0 mm 0.00 in0.0 mm 0.00 in0.0 mm
04:45 AM 54.5°F12.5°C 51.6°F10.9°C 90% 4.7 mph WSW7.6 kmh WSW 8.3 mph13.4 kmh 29.98 in1015.2 mb 0.00 in0.0 mm 0.00 in0.0 mm 0.00 in0.0 mm
04:50 AM 54.7°F12.6°C 51.8°F11.0°C 90% 5.2 mph SW8.4 kmh SW 8.3 mph13.4 kmh 29.98 in1015.2 mb 0.00 in0.0 mm 0.00 in0.0 mm 0.00 in0.0 mm
04:55 AM 54.7°F12.6°C 51.8°F11.0°C 90% 5.2 mph SW8.4 kmh SW 8.3 mph13.4 kmh 29.98 in1015.2 mb 0.00 in0.0 mm 0.00 in0.0 mm 0.00 in0.0 mm
05:00 AM 54.9°F12.7°C 52.0°F11.1°C 90% 5.2 mph SW8.4 kmh SW 9.2 mph14.8 kmh 29.98 in1015.2 mb 0.00 in0.0 mm 0.00 in0.0 mm 0.00 in0.0 mm
05:05 AM 55.0°F12.8°C 52.2°F11.2°C 90% 5.0 mph SW8.0 kmh SW 9.2 mph14.8 kmh 29.98 in1015.2 mb 0.00 in0.0 mm 0.00 in0.0 mm 0.00 in0.0 mm
05:10 AM 55.2°F12.9°C 52.3°F11.3°C 90% 5.0 mph SW8.0 kmh SW 7.6 mph12.2 kmh 29.98 in1015.2 mb 0.00 in0.0 mm 0.00 in0.0 mm 0.00 in0.0 mm
05:15 AM 55.6°F13.1°C 52.7°F11.5°C 90% 5.1 mph WSW8.2 kmh WSW 9.8 mph15.8 kmh 29.98 in1015.2 mb 0.00 in0.0 mm 0.00 in0.0 mm 0.00 in0.0 mm
05:20 AM 56.3°F13.5°C 53.4°F11.9°C 90% 5.7 mph SW9.2 kmh SW 10.7 mph17.2 kmh 29.98 in1015.2 mb 0.00 in0.0 mm 0.00 in0.0 mm 0.00 in0.0 mm
05:25 AM 56.8°F13.8°C 53.6°F12.0°C 89% 6.3 mph WSW10.1 kmh WSW 10.7 mph17.2 kmh 29.98 in1015.2 mb 0.00 in0.0 mm 0.00 in0.0 mm 0.00 in0.0 mm
05:30 AM 57.2°F14.0°C 53.4°F11.9°C 87% 6.4 mph WSW10.3 kmh WSW 13.0 mph20.9 kmh 29.99 in1015.6 mb 0.00 in0.0 mm 0.00 in0.0 mm 0.00 in0.0 mm
05:35 AM 57.6°F14.2°C 53.4°F11.9°C 86% 7.0 mph WSW11.3 kmh WSW 13.0 mph20.9 kmh 29.98 in1015.2 mb 0.00 in0.0 mm 0.00 in0.0 mm 0.00 in0.0 mm
05:40 AM 57.9°F14.4°C 53.1°F11.7°C 84% 7.3 mph SW11.7 kmh SW 14.5 mph23.3 kmh 29.99 in1015.6 mb 0.00 in0.0 mm 0.00 in0.0 mm 0.00 in0.0 mm
05:45 AM 58.3°F14.6°C 53.1°F11.7°C 83% 6.7 mph SW10.8 kmh SW 14.5 mph23.3 kmh 29.99 in1015.6 mb 0.00 in0.0 mm 0.00 in0.0 mm 0.00 in0.0 mm
05:50 AM 58.6°F14.8°C 53.2°F11.8°C 82% 6.3 mph SW10.1 kmh SW 14.5 mph23.3 kmh 29.99 in1015.6 mb 0.00 in0.0 mm 0.00 in0.0 mm 0.00 in0.0 mm
05:55 AM 59.0°F15.0°C 53.2°F11.8°C 81% 6.8 mph SW10.9 kmh SW 12.1 mph19.5 kmh 29.99 in1015.6 mb 0.00 in0.0 mm 0.00 in0.0 mm 0.00 in0.0 mm
06:00 AM 59.0°F15.0°C 52.8°F11.6°C 80% 7.2 mph WSW11.6 kmh WSW 13.0 mph20.9 kmh 29.99 in1015.6 mb 0.00 in0.0 mm 0.00 in0.0 mm 0.00 in0.0 mm
06:05 AM 58.6°F14.8°C 52.5°F11.4°C 80% 7.0 mph WSW11.3 kmh WSW 13.0 mph20.9 kmh 29.99 in1015.6 mb 0.00 in0.0 mm 0.00 in0.0 mm 0.00 in0.0 mm
06:10 AM 58.6°F14.8°C 52.5°F11.4°C 80% 7.0 mph SW11.3 kmh SW 14.5 mph23.3 kmh 29.99 in1015.6 mb 0.00 in0.0 mm 0.00 in0.0 mm 0.00 in0.0 mm
06:15 AM 58.6°F14.8°C 52.5°F11.4°C 80% 7.1 mph SW11.4 kmh SW 14.5 mph23.3 kmh 29.99 in1015.6 mb 0.00 in0.0 mm 0.00 in0.0 mm 0.00 in0.0 mm
06:20 AM 58.6°F14.8°C 52.5°F11.4°C 80% 7.4 mph WSW11.9 kmh WSW 13.6 mph21.9 kmh 30.00 in1015.9 mb 0.00 in0.0 mm 0.00 in0.0 mm 0.00 in0.0 mm
06:25 AM 58.6°F14.8°C 52.5°F11.4°C 80% 7.7 mph WSW12.4 kmh WSW 13.6 mph21.9 kmh 29.99 in1015.6 mb 0.00 in0.0 mm 0.00 in0.0 mm 0.00 in0.0 mm
06:30 AM 58.8°F14.9°C 52.7°F11.5°C 80% 8.2 mph WSW13.2 kmh WSW 13.0 mph20.9 kmh 29.99 in1015.6 mb 0.00 in0.0 mm 0.00 in0.0 mm 0.00 in0.0 mm
06:35 AM 59.0°F15.0°C 52.5°F11.4°C 79% 7.9 mph WSW12.7 kmh WSW 13.0 mph20.9 kmh 30.00 in1015.9 mb 0.00 in0.0 mm 0.00 in0.0 mm 0.00 in0.0 mm
06:40 AM 59.2°F15.1°C 52.3°F11.3°C 78% 7.6 mph WSW12.2 kmh WSW 14.5 mph23.3 kmh 30.00 in1015.9 mb 0.00 in0.0 mm 0.00 in0.0 mm 0.00 in0.0 mm
06:45 AM 59.4°F15.2°C 52.5°F11.4°C 78% 8.6 mph WSW13.8 kmh WSW 15.2 mph24.5 kmh 30.00 in1015.9 mb 0.00 in0.0 mm 0.00 in0.0 mm 0.00 in0.0 mm
06:50 AM 59.4°F15.2°C 51.8°F11.0°C 76% 9.6 mph WSW15.4 kmh WSW 15.2 mph24.5 kmh 30.01 in1016.3 mb 0.00 in0.0 mm 0.00 in0.0 mm 0.00 in0.0 mm
06:55 AM 59.5°F15.3°C 51.6°F10.9°C 75% 8.7 mph SW14.0 kmh SW 15.2 mph24.5 kmh 30.01 in1016.3 mb 0.00 in0.0 mm 0.00 in0.0 mm 0.00 in0.0 mm
07:00 AM 59.7°F15.4°C 51.4°F10.8°C 74% 8.5 mph SW13.7 kmh SW 16.8 mph27.0 kmh 30.01 in1016.3 mb 0.00 in0.0 mm 0.00 in0.0 mm 0.00 in0.0 mm
07:05 AM 59.9°F15.5°C 51.2°F10.7°C 73% 9.5 mph WSW15.3 kmh WSW 17.4 mph28.0 kmh 30.01 in1016.3 mb 0.00 in0.0 mm 0.00 in0.0 mm 0.00 in0.0 mm
07:10 AM 60.3°F15.7°C 50.8°F10.4°C 71% 9.8 mph WSW15.8 kmh WSW 17.4 mph28.0 kmh 30.01 in1016.3 mb 0.00 in0.0 mm 0.00 in0.0 mm 0.00 in0.0 mm
07:15 AM 60.3°F15.7°C 50.0°F10.0°C 69% 10.9 mph WSW17.5 kmh WSW 17.4 mph28.0 kmh 30.01 in1016.3 mb 0.00 in0.0 mm 0.00 in0.0 mm 0.00 in0.0 mm
07:20 AM 60.3°F15.7°C 50.0°F10.0°C 69% 11.1 mph WSW17.9 kmh WSW 17.4 mph28.0 kmh 30.01 in1016.3 mb 0.00 in0.0 mm 0.00 in0.0 mm 0.00 in0.0 mm
07:25 AM 60.6°F15.9°C 50.0°F10.0°C 68% 11.2 mph WSW18.0 kmh WSW 22.1 mph35.6 kmh 30.01 in1016.3 mb 0.00 in0.0 mm 0.00 in0.0 mm 0.00 in0.0 mm
07:30 AM 61.3°F16.3°C 50.3°F10.2°C 67% 10.8 mph WSW17.4 kmh WSW 22.1 mph35.6 kmh 30.01 in1016.3 mb 0.00 in0.0 mm 0.00 in0.0 mm 0.00 in0.0 mm
07:35 AM 61.5°F16.4°C 50.1°F10.1°C 66% 9.6 mph WSW15.4 kmh WSW 15.2 mph24.5 kmh 30.02 in1016.6 mb 0.00 in0.0 mm 0.00 in0.0 mm 0.00 in0.0 mm
07:40 AM 61.3°F16.3°C 49.5°F9.7°C 65% 10.2 mph W16.4 kmh W 17.4 mph28.0 kmh 30.02 in1016.6 mb 0.00 in0.0 mm 0.00 in0.0 mm 0.00 in0.0 mm
07:45 AM 61.0°F16.1°C 49.1°F9.5°C 65% 11.1 mph W17.9 kmh W 17.4 mph28.0 kmh 30.02 in1016.6 mb 0.00 in0.0 mm 0.00 in0.0 mm 0.00 in0.0 mm
07:50 AM 61.0°F16.1°C 49.5°F9.7°C 66% 10.6 mph W17.1 kmh W 16.8 mph27.0 kmh 30.02 in1016.6 mb 0.00 in0.0 mm 0.00 in0.0 mm 0.00 in0.0 mm
07:55 AM 61.2°F16.2°C 49.7°F9.8°C 66% 10.1 mph WSW16.3 kmh WSW 17.4 mph28.0 kmh 30.02 in1016.6 mb 0.00 in0.0 mm 0.00 in0.0 mm 0.00 in0.0 mm
08:00 AM 61.0°F16.1°C 49.1°F9.5°C 65% 11.3 mph WSW18.2 kmh WSW 19.0 mph30.6 kmh 30.02 in1016.6 mb 0.00 in0.0 mm 0.00 in0.0 mm 0.00 in0.0 mm
08:05 AM 60.8°F16.0°C 49.0°F9.4°C 65% 12.8 mph WSW20.6 kmh WSW 19.7 mph31.7 kmh 30.02 in1016.6 mb 0.00 in0.0 mm 0.00 in0.0 mm 0.00 in0.0 mm
08:10 AM 60.8°F16.0°C 49.0°F9.4°C 65% 12.4 mph WSW20.0 kmh WSW 19.7 mph31.7 kmh 30.02 in1016.6 mb 0.00 in0.0 mm 0.00 in0.0 mm 0.00 in0.0 mm
08:15 AM 61.0°F16.1°C 48.7°F9.3°C 64% 12.3 mph W19.8 kmh W 19.0 mph30.6 kmh 30.03 in1016.9 mb 0.00 in0.0 mm 0.00 in0.0 mm 0.00 in0.0 mm
08:20 AM 61.9°F16.6°C 49.1°F9.5°C 63% 12.3 mph W19.8 kmh W 22.1 mph35.6 kmh 30.03 in1016.9 mb 0.00 in0.0 mm 0.00 in0.0 mm 0.00 in0.0 mm
08:25 AM 62.8°F17.1°C 49.6°F9.8°C 62% 11.5 mph W18.5 kmh W 22.1 mph35.6 kmh 30.02 in1016.6 mb 0.00 in0.0 mm 0.00 in0.0 mm 0.00 in0.0 mm
08:30 AM 63.7°F17.6°C 50.0°F10.0°C 61% 10.9 mph W17.5 kmh W 19.0 mph30.6 kmh 30.03 in1016.9 mb 0.00 in0.0 mm 0.00 in0.0 mm 0.00 in0.0 mm
08:35 AM 63.7°F17.6°C 49.1°F9.5°C 59% 11.4 mph WSW18.3 kmh WSW 19.7 mph31.7 kmh 30.03 in1016.9 mb 0.00 in0.0 mm 0.00 in0.0 mm 0.00 in0.0 mm
08:40 AM 63.7°F17.6°C 48.6°F9.2°C 58% 13.0 mph WSW20.9 kmh WSW 19.7 mph31.7 kmh 30.03 in1016.9 mb 0.00 in0.0 mm 0.00 in0.0 mm 0.00 in0.0 mm
08:45 AM 64.2°F17.9°C 49.1°F9.5°C 58% 13.0 mph W20.9 kmh W 20.6 mph33.2 kmh 30.03 in1016.9 mb 0.00 in0.0 mm 0.00 in0.0 mm 0.00 in0.0 mm
08:50 AM 63.9°F17.7°C 48.3°F9.1°C 57% 12.9 mph WSW20.8 kmh WSW 20.6 mph33.2 kmh 30.03 in1016.9 mb 0.00 in0.0 mm 0.00 in0.0 mm 0.00 in0.0 mm
08:55 AM 64.2°F17.9°C 49.6°F9.8°C 59% 12.7 mph WSW20.4 kmh WSW 22.1 mph35.6 kmh 30.03 in1016.9 mb 0.00 in0.0 mm 0.00 in0.0 mm 0.00 in0.0 mm
09:00 AM 64.8°F18.2°C 49.2°F9.6°C 57% 12.8 mph W20.6 kmh W 22.1 mph35.6 kmh 30.03 in1016.9 mb 0.00 in0.0 mm 0.00 in0.0 mm 0.00 in0.0 mm
09:05 AM 64.6°F18.1°C 49.0°F9.4°C 57% 13.7 mph WSW22.0 kmh WSW 22.1 mph35.6 kmh 30.03 in1016.9 mb 0.00 in0.0 mm 0.00 in0.0 mm 0.00 in0.0 mm
09:10 AM 64.8°F18.2°C 49.6°F9.8°C 58% 13.3 mph WSW21.4 kmh WSW 22.8 mph36.7 kmh 30.03 in1016.9 mb 0.00 in0.0 mm 0.00 in0.0 mm 0.00 in0.0 mm
09:15 AM 64.9°F18.3°C 49.8°F9.9°C 58% 13.2 mph W21.2 kmh W 22.8 mph36.7 kmh 30.03 in1016.9 mb 0.00 in0.0 mm 0.00 in0.0 mm 0.00 in0.0 mm
09:20 AM 64.9°F18.3°C 49.8°F9.9°C 58% 14.1 mph WSW22.7 kmh WSW 25.9 mph41.7 kmh 30.03 in1016.9 mb 0.00 in0.0 mm 0.00 in0.0 mm 0.00 in0.0 mm
09:25 AM 64.9°F18.3°C 49.3°F9.6°C 57% 13.8 mph WSW22.2 kmh WSW 25.9 mph41.7 kmh 30.03 in1016.9 mb 0.00 in0.0 mm 0.00 in0.0 mm 0.00 in0.0 mm
09:30 AM 65.3°F18.5°C 49.7°F9.8°C 57% 12.2 mph W19.6 kmh W 22.1 mph35.6 kmh 30.03 in1016.9 mb 0.00 in0.0 mm 0.00 in0.0 mm 0.00 in0.0 mm
09:35 AM 65.7°F18.7°C 50.0°F10.0°C 57% 11.6 mph WNW18.7 kmh WNW 19.0 mph30.6 kmh 30.03 in1016.9 mb 0.00 in0.0 mm 0.00 in0.0 mm 0.00 in0.0 mm
09:40 AM 65.7°F18.7°C 49.5°F9.7°C 56% 12.9 mph W20.8 kmh W 19.7 mph31.7 kmh 30.03 in1016.9 mb 0.00 in0.0 mm 0.00 in0.0 mm 0.00 in0.0 mm
09:45 AM 66.0°F18.9°C 50.3°F10.2°C 57% 13.4 mph W21.6 kmh W 19.7 mph31.7 kmh 30.03 in1016.9 mb 0.00 in0.0 mm 0.00 in0.0 mm 0.00 in0.0 mm
09:50 AM 65.8°F18.8°C 49.7°F9.8°C 56% 13.0 mph W20.9 kmh W 20.6 mph33.2 kmh 30.04 in1017.3 mb 0.00 in0.0 mm 0.00 in0.0 mm 0.00 in0.0 mm
09:55 AM 65.8°F18.8°C 49.7°F9.8°C 56% 13.1 mph WSW21.1 kmh WSW 22.8 mph36.7 kmh 30.04 in1017.3 mb 0.00 in0.0 mm 0.00 in0.0 mm 0.00 in0.0 mm
10:00 AM 66.2°F19.0°C 50.5°F10.3°C 57% 11.8 mph SW19.0 kmh SW 22.8 mph36.7 kmh 30.04 in1017.3 mb 0.00 in0.0 mm 0.00 in0.0 mm 0.00 in0.0 mm
10:05 AM 66.0°F18.9°C 50.8°F10.4°C 58% 11.1 mph SW17.9 kmh SW 22.1 mph35.6 kmh 30.04 in1017.3 mb 0.00 in0.0 mm 0.00 in0.0 mm 0.00 in0.0 mm
10:10 AM 66.0°F18.9°C 50.8°F10.4°C 58% 12.6 mph SW20.3 kmh SW 22.8 mph36.7 kmh 30.04 in1017.3 mb 0.00 in0.0 mm 0.00 in0.0 mm 0.00 in0.0 mm
10:15 AM 66.4°F19.1°C 50.2°F10.1°C 56% 14.4 mph WSW23.2 kmh WSW 22.8 mph36.7 kmh 30.04 in1017.3 mb 0.00 in0.0 mm 0.00 in0.0 mm 0.00 in0.0 mm
10:20 AM 66.9°F19.4°C 51.2°F10.7°C 57% 13.9 mph WSW22.4 kmh WSW 25.1 mph40.4 kmh 30.04 in1017.3 mb 0.00 in0.0 mm 0.00 in0.0 mm 0.00 in0.0 mm
10:25 AM 67.5°F19.7°C 51.2°F10.7°C 56% 12.9 mph WSW20.8 kmh WSW 25.1 mph40.4 kmh 30.04 in1017.3 mb 0.00 in0.0 mm 0.00 in0.0 mm 0.00 in0.0 mm
10:30 AM 67.3°F19.6°C 51.0°F10.6°C 56% 12.5 mph W20.1 kmh W 22.8 mph36.7 kmh 30.04 in1017.3 mb 0.00 in0.0 mm 0.00 in0.0 mm 0.00 in0.0 mm
10:35 AM 66.9°F19.4°C 50.7°F10.4°C 56% 13.2 mph W21.2 kmh W 22.8 mph36.7 kmh 30.04 in1017.3 mb 0.00 in0.0 mm 0.00 in0.0 mm 0.00 in0.0 mm
10:40 AM 67.6°F19.8°C 51.9°F11.1°C 57% 13.7 mph WSW22.0 kmh WSW 22.8 mph36.7 kmh 30.04 in1017.3 mb 0.00 in0.0 mm 0.00 in0.0 mm 0.00 in0.0 mm
10:45 AM 68.0°F20.0°C 51.2°F10.7°C 55% 13.1 mph SW21.1 kmh SW 22.8 mph36.7 kmh 30.04 in1017.3 mb 0.00 in0.0 mm 0.00 in0.0 mm 0.00 in0.0 mm
10:50 AM 67.5°F19.7°C 51.2°F10.7°C 56% 14.0 mph WSW22.5 kmh WSW 23.5 mph37.8 kmh 30.04 in1017.3 mb 0.00 in0.0 mm 0.00 in0.0 mm 0.00 in0.0 mm
10:55 AM 68.4°F20.2°C 52.0°F11.1°C 56% 14.3 mph WSW23.0 kmh WSW 23.5 mph37.8 kmh 30.04 in1017.3 mb 0.00 in0.0 mm 0.00 in0.0 mm 0.00 in0.0 mm
11:00 AM 68.2°F20.1°C 50.9°F10.5°C 54% 14.4 mph W23.2 kmh W 22.1 mph35.6 kmh 30.04 in1017.3 mb 0.00 in0.0 mm 0.00 in0.0 mm 0.00 in0.0 mm
11:05 AM 67.1°F19.5°C 50.9°F10.5°C 56% 14.2 mph WNW22.9 kmh WNW 22.1 mph35.6 kmh 30.05 in1017.6 mb 0.00 in0.0 mm 0.00 in0.0 mm 0.00 in0.0 mm
11:10 AM 67.1°F19.5°C 51.4°F10.8°C 57% 13.3 mph WSW21.4 kmh WSW 22.1 mph35.6 kmh 30.05 in1017.6 mb 0.00 in0.0 mm 0.00 in0.0 mm 0.00 in0.0 mm
11:15 AM 67.1°F19.5°C 51.4°F10.8°C 57% 11.3 mph WSW18.2 kmh WSW 21.3 mph34.3 kmh 30.04 in1017.3 mb 0.00 in0.0 mm 0.00 in0.0 mm 0.00 in0.0 mm
11:20 AM 67.6°F19.8°C 51.4°F10.8°C 56% 11.6 mph WSW18.7 kmh WSW 22.1 mph35.6 kmh 30.05 in1017.6 mb 0.00 in0.0 mm 0.00 in0.0 mm 0.00 in0.0 mm
11:25 AM 67.1°F19.5°C 51.8°F11.0°C 58% 12.9 mph WSW20.8 kmh WSW 22.1 mph35.6 kmh 30.05 in1017.6 mb 0.00 in0.0 mm 0.00 in0.0 mm 0.00 in0.0 mm
11:30 AM 68.0°F20.0°C 51.2°F10.7°C 55% 13.4 mph WSW21.6 kmh WSW 24.4 mph39.3 kmh 30.05 in1017.6 mb 0.00 in0.0 mm 0.00 in0.0 mm 0.00 in0.0 mm
11:35 AM 68.7°F20.4°C 52.9°F11.6°C 57% 13.1 mph WSW21.1 kmh WSW 24.4 mph39.3 kmh 30.06 in1017.9 mb 0.00 in0.0 mm 0.00 in0.0 mm 0.00 in0.0 mm
11:40 AM 68.7°F20.4°C 51.9°F11.1°C 55% 11.4 mph WSW18.3 kmh WSW 19.7 mph31.7 kmh 30.05 in1017.6 mb 0.00 in0.0 mm 0.00 in0.0 mm 0.00 in0.0 mm
11:45 AM 68.5°F20.3°C 51.7°F10.9°C 55% 11.9 mph SW19.2 kmh SW 22.1 mph35.6 kmh 30.06 in1017.9 mb 0.00 in0.0 mm 0.00 in0.0 mm 0.00 in0.0 mm
11:50 AM 68.4°F20.2°C 51.6°F10.9°C 55% 12.4 mph SW20.0 kmh SW 23.5 mph37.8 kmh 30.06 in1017.9 mb 0.00 in0.0 mm 0.00 in0.0 mm 0.00 in0.0 mm
11:55 AM 69.1°F20.6°C 52.7°F11.5°C 56% 11.4 mph SW18.3 kmh SW 23.5 mph37.8 kmh 30.06 in1017.9 mb 0.00 in0.0 mm 0.00 in0.0 mm 0.00 in0.0 mm
12:00 PM 68.7°F20.4°C 51.9°F11.1°C 55% 11.7 mph WSW18.8 kmh WSW 20.6 mph33.2 kmh 30.06 in1017.9 mb 0.00 in0.0 mm 0.00 in0.0 mm 0.00 in0.0 mm
12:05 PM 68.2°F20.1°C 51.4°F10.8°C 55% 12.1 mph WSW19.5 kmh WSW 20.6 mph33.2 kmh 30.06 in1017.9 mb 0.00 in0.0 mm 0.00 in0.0 mm 0.00 in0.0 mm
12:10 PM 66.9°F19.4°C 50.7°F10.4°C 56% 12.0 mph WSW19.3 kmh WSW 21.3 mph34.3 kmh 30.06 in1017.9 mb 0.00 in0.0 mm 0.00 in0.0 mm 0.00 in0.0 mm
12:15 PM 66.6°F19.2°C 50.8°F10.4°C 57% 12.1 mph W19.5 kmh W 21.3 mph34.3 kmh 30.07 in1018.3 mb 0.00 in0.0 mm 0.00 in0.0 mm 0.00 in0.0 mm
12:20 PM 66.2°F19.0°C 50.5°F10.3°C 57% 12.4 mph W20.0 kmh W 21.3 mph34.3 kmh 30.07 in1018.3 mb 0.00 in0.0 mm 0.00 in0.0 mm 0.00 in0.0 mm
12:25 PM 67.1°F19.5°C 51.4°F10.8°C 57% 12.4 mph WSW20.0 kmh WSW 24.4 mph39.3 kmh 30.06 in1017.9 mb 0.00 in0.0 mm 0.00 in0.0 mm 0.00 in0.0 mm
12:30 PM 67.8°F19.9°C 51.5°F10.8°C 56% 12.7 mph WSW20.4 kmh WSW 24.4 mph39.3 kmh 30.06 in1017.9 mb 0.00 in0.0 mm 0.00 in0.0 mm 0.00 in0.0 mm
12:35 PM 68.7°F20.4°C 52.4°F11.3°C 56% 12.1 mph WSW19.5 kmh WSW 20.6 mph33.2 kmh 30.07 in1018.3 mb 0.00 in0.0 mm 0.00 in0.0 mm 0.00 in0.0 mm
12:40 PM 68.4°F20.2°C 51.6°F10.9°C 55% 11.6 mph SW18.7 kmh SW 20.6 mph33.2 kmh 30.06 in1017.9 mb 0.00 in0.0 mm 0.00 in0.0 mm 0.00 in0.0 mm
12:45 PM 68.4°F20.2°C 52.0°F11.1°C 56% 10.8 mph WSW17.4 kmh WSW 19.0 mph30.6 kmh 30.06 in1017.9 mb 0.00 in0.0 mm 0.00 in0.0 mm 0.00 in0.0 mm
12:50 PM 69.1°F20.6°C 52.2°F11.2°C 55% 9.7 mph WSW15.6 kmh WSW 19.7 mph31.7 kmh 30.06 in1017.9 mb 0.00 in0.0 mm 0.00 in0.0 mm 0.00 in0.0 mm
12:55 PM 68.9°F20.5°C 51.6°F10.9°C 54% 12.2 mph WSW19.6 kmh WSW 22.8 mph36.7 kmh 30.07 in1018.3 mb 0.00 in0.0 mm 0.00 in0.0 mm 0.00 in0.0 mm
01:00 PM 68.9°F20.5°C 52.1°F11.2°C 55% 12.1 mph WSW19.5 kmh WSW 22.8 mph36.7 kmh 30.06 in1017.9 mb 0.00 in0.0 mm 0.00 in0.0 mm 0.00 in0.0 mm
01:05 PM 68.9°F20.5°C 52.1°F11.2°C 55% 10.5 mph W16.9 kmh W 20.6 mph33.2 kmh 30.06 in1017.9 mb 0.00 in0.0 mm 0.00 in0.0 mm 0.00 in0.0 mm
01:10 PM 69.3°F20.7°C 52.4°F11.3°C 55% 11.4 mph WNW18.3 kmh WNW 22.8 mph36.7 kmh 30.06 in1017.9 mb 0.00 in0.0 mm 0.00 in0.0 mm 0.00 in0.0 mm
01:15 PM 69.3°F20.7°C 51.9°F11.1°C 54% 10.7 mph NW17.2 kmh NW 22.8 mph36.7 kmh 30.07 in1018.3 mb 0.00 in0.0 mm 0.00 in0.0 mm 0.00 in0.0 mm
01:20 PM 69.3°F20.7°C 52.4°F11.3°C 55% 8.8 mph NW14.2 kmh NW 20.6 mph33.2 kmh 30.07 in1018.3 mb 0.00 in0.0 mm 0.00 in0.0 mm 0.00 in0.0 mm
01:25 PM 68.4°F20.2°C 51.6°F10.9°C 55% 9.9 mph W15.9 kmh W 20.6 mph33.2 kmh 30.07 in1018.3 mb 0.00 in0.0 mm 0.00 in0.0 mm 0.00 in0.0 mm
01:30 PM 68.4°F20.2°C 52.0°F11.1°C 56% 11.7 mph W18.8 kmh W 19.0 mph30.6 kmh 30.07 in1018.3 mb 0.00 in0.0 mm 0.00 in0.0 mm 0.00 in0.0 mm
01:35 PM 67.8°F19.9°C 52.5°F11.4°C 58% 11.5 mph WSW18.5 kmh WSW 16.8 mph27.0 kmh 30.07 in1018.3 mb 0.00 in0.0 mm 0.00 in0.0 mm 0.00 in0.0 mm
01:40 PM 67.5°F19.7°C 52.2°F11.2°C 58% 10.1 mph WSW16.3 kmh WSW 16.8 mph27.0 kmh 30.07 in1018.3 mb 0.00 in0.0 mm 0.00 in0.0 mm 0.00 in0.0 mm
01:50 PM 69.1°F20.6°C 52.2°F11.2°C 55% 9.7 mph SW15.6 kmh SW 21.3 mph34.3 kmh 30.07 in1018.3 mb 0.00 in0.0 mm 0.00 in0.0 mm 0.00 in0.0 mm
01:55 PM 68.2°F20.1°C 51.9°F11.1°C 56% 12.1 mph WSW19.5 kmh WSW 21.3 mph34.3 kmh 30.08 in1018.6 mb 0.00 in0.0 mm 0.00 in0.0 mm 0.00 in0.0 mm
02:00 PM 68.5°F20.3°C 52.7°F11.5°C 57% 13.6 mph WSW21.9 kmh WSW 19.7 mph31.7 kmh 30.08 in1018.6 mb 0.00 in0.0 mm 0.00 in0.0 mm 0.00 in0.0 mm
02:05 PM 68.5°F20.3°C 52.7°F11.5°C 57% 13.6 mph WNW21.9 kmh WNW 19.0 mph30.6 kmh 30.08 in1018.6 mb 0.00 in0.0 mm 0.00 in0.0 mm 0.00 in0.0 mm
02:10 PM 68.0°F20.0°C 52.2°F11.2°C 57% 12.4 mph NW20.0 kmh NW 17.4 mph28.0 kmh 30.08 in1018.6 mb 0.00 in0.0 mm 0.00 in0.0 mm 0.00 in0.0 mm
02:15 PM 67.5°F19.7°C 51.7°F10.9°C 57% 10.0 mph WSW16.1 kmh WSW 17.4 mph28.0 kmh 30.09 in1019.0 mb 0.00 in0.0 mm 0.00 in0.0 mm 0.00 in0.0 mm
02:20 PM 68.2°F20.1°C 52.4°F11.3°C 57% 9.3 mph SW15.0 kmh SW 16.8 mph27.0 kmh 30.08 in1018.6 mb 0.00 in0.0 mm 0.00 in0.0 mm 0.00 in0.0 mm
02:25 PM 69.3°F20.7°C 52.9°F11.6°C 56% 9.8 mph WNW15.8 kmh WNW 15.9 mph25.6 kmh 30.08 in1018.6 mb 0.00 in0.0 mm 0.00 in0.0 mm 0.00 in0.0 mm
02:30 PM 69.3°F20.7°C 52.4°F11.3°C 55% 10.7 mph WNW17.2 kmh WNW 19.0 mph30.6 kmh 30.08 in1018.6 mb 0.00 in0.0 mm 0.00 in0.0 mm 0.00 in0.0 mm
02:35 PM 68.0°F20.0°C 51.2°F10.7°C 55% 11.4 mph WNW18.3 kmh WNW 23.5 mph37.8 kmh 30.08 in1018.6 mb 0.00 in0.0 mm 0.00 in0.0 mm 0.00 in0.0 mm
02:40 PM 67.1°F19.5°C 51.4°F10.8°C 57% 11.1 mph NW17.9 kmh NW 23.5 mph37.8 kmh 30.08 in1018.6 mb 0.00 in0.0 mm 0.00 in0.0 mm 0.00 in0.0 mm
02:45 PM 66.6°F19.2°C 51.3°F10.7°C 58% 11.1 mph WNW17.9 kmh WNW 21.3 mph34.3 kmh 30.09 in1019.0 mb 0.00 in0.0 mm 0.00 in0.0 mm 0.00 in0.0 mm
02:50 PM 67.1°F19.5°C 51.8°F11.0°C 58% 12.4 mph W20.0 kmh W 22.1 mph35.6 kmh 30.09 in1019.0 mb 0.00 in0.0 mm 0.00 in0.0 mm 0.00 in0.0 mm
02:55 PM 68.4°F20.2°C 52.5°F11.4°C 57% 11.1 mph WSW17.9 kmh WSW 22.1 mph35.6 kmh 30.09 in1019.0 mb 0.00 in0.0 mm 0.00 in0.0 mm 0.00 in0.0 mm
03:00 PM 69.4°F20.8°C 53.5°F11.9°C 57% 9.7 mph W15.6 kmh W 17.4 mph28.0 kmh 30.09 in1019.0 mb 0.00 in0.0 mm 0.00 in0.0 mm 0.00 in0.0 mm
03:05 PM 69.8°F21.0°C 52.4°F11.3°C 54% 9.1 mph W14.6 kmh W 17.4 mph28.0 kmh 30.09 in1019.0 mb 0.00 in0.0 mm 0.00 in0.0 mm 0.00 in0.0 mm
03:10 PM 69.3°F20.7°C 52.4°F11.3°C 55% 9.8 mph WSW15.8 kmh WSW 19.7 mph31.7 kmh 30.09 in1019.0 mb 0.00 in0.0 mm 0.00 in0.0 mm 0.00 in0.0 mm
03:15 PM 69.1°F20.6°C 52.2°F11.2°C 55% 11.8 mph W19.0 kmh W 19.7 mph31.7 kmh 30.09 in1019.0 mb 0.00 in0.0 mm 0.00 in0.0 mm 0.00 in0.0 mm
03:20 PM 69.1°F20.6°C 52.7°F11.5°C 56% 12.5 mph NW20.1 kmh NW 19.7 mph31.7 kmh 30.09 in1019.0 mb 0.00 in0.0 mm 0.00 in0.0 mm 0.00 in0.0 mm
03:25 PM 69.1°F20.6°C 51.7°F10.9°C 54% 12.1 mph NW19.5 kmh NW 17.4 mph28.0 kmh 30.09 in1019.0 mb 0.00 in0.0 mm 0.00 in0.0 mm 0.00 in0.0 mm
03:30 PM 68.4°F20.2°C 51.6°F10.9°C 55% 10.5 mph WNW16.9 kmh WNW 17.4 mph28.0 kmh 30.09 in1019.0 mb 0.00 in0.0 mm 0.00 in0.0 mm 0.00 in0.0 mm
03:35 PM 68.0°F20.0°C 51.7°F10.9°C 56% 9.9 mph W15.9 kmh W 19.0 mph30.6 kmh 30.09 in1019.0 mb 0.00 in0.0 mm 0.00 in0.0 mm 0.00 in0.0 mm
03:40 PM 67.6°F19.8°C 51.4°F10.8°C 56% 10.9 mph W17.5 kmh W 19.0 mph30.6 kmh 30.09 in1019.0 mb 0.00 in0.0 mm 0.00 in0.0 mm 0.00 in0.0 mm
03:45 PM 67.3°F19.6°C 51.5°F10.8°C 57% 10.9 mph W17.5 kmh W 19.0 mph30.6 kmh 30.09 in1019.0 mb 0.00 in0.0 mm 0.00 in0.0 mm 0.00 in0.0 mm
03:50 PM 67.8°F19.9°C 52.5°F11.4°C 58% 8.3 mph WSW13.4 kmh WSW 15.2 mph24.5 kmh 30.09 in1019.0 mb 0.00 in0.0 mm 0.00 in0.0 mm 0.00 in0.0 mm
03:55 PM 67.6°F19.8°C 51.9°F11.1°C 57% 8.2 mph WSW13.2 kmh WSW 19.0 mph30.6 kmh 30.09 in1019.0 mb 0.00 in0.0 mm 0.00 in0.0 mm 0.00 in0.0 mm
04:00 PM 66.9°F19.4°C 51.2°F10.7°C 57% 10.6 mph WSW17.1 kmh WSW 19.0 mph30.6 kmh 30.09 in1019.0 mb 0.00 in0.0 mm 0.00 in0.0 mm 0.00 in0.0 mm
04:05 PM 66.7°F19.3°C 51.0°F10.6°C 57% 9.6 mph WSW15.4 kmh WSW 18.3 mph29.5 kmh 30.10 in1019.3 mb 0.00 in0.0 mm 0.00 in0.0 mm 0.00 in0.0 mm
04:10 PM 66.2°F19.0°C 50.5°F10.3°C 57% 7.8 mph SW12.6 kmh SW 13.6 mph21.9 kmh 30.10 in1019.3 mb 0.00 in0.0 mm 0.00 in0.0 mm 0.00 in0.0 mm
04:15 PM 66.0°F18.9°C 50.3°F10.2°C 57% 8.7 mph WSW14.0 kmh WSW 13.6 mph21.9 kmh 30.10 in1019.3 mb 0.00 in0.0 mm 0.00 in0.0 mm 0.00 in0.0 mm
04:20 PM 66.2°F19.0°C 50.0°F10.0°C 56% 9.3 mph W15.0 kmh W 16.8 mph27.0 kmh 30.10 in1019.3 mb 0.00 in0.0 mm 0.00 in0.0 mm 0.00 in0.0 mm
04:25 PM 66.6°F19.2°C 50.4°F10.2°C 56% 8.9 mph W14.3 kmh W 16.8 mph27.0 kmh 30.10 in1019.3 mb 0.00 in0.0 mm 0.00 in0.0 mm 0.00 in0.0 mm
04:30 PM 67.8°F19.9°C 51.5°F10.8°C 56% 8.2 mph WSW13.2 kmh WSW 14.5 mph23.3 kmh 30.09 in1019.0 mb 0.00 in0.0 mm 0.00 in0.0 mm 0.00 in0.0 mm
04:35 PM 68.7°F20.4°C 51.4°F10.8°C 54% 7.6 mph WSW12.2 kmh WSW 15.2 mph24.5 kmh 30.10 in1019.3 mb 0.00 in0.0 mm 0.00 in0.0 mm 0.00 in0.0 mm
04:40 PM 67.6°F19.8°C 49.9°F9.9°C 53% 10.2 mph WSW16.4 kmh WSW 19.0 mph30.6 kmh 30.10 in1019.3 mb 0.00 in0.0 mm 0.00 in0.0 mm 0.00 in0.0 mm
04:45 PM 67.1°F19.5°C 49.9°F9.9°C 54% 13.3 mph WSW21.4 kmh WSW 25.1 mph40.4 kmh 30.11 in1019.6 mb 0.00 in0.0 mm 0.00 in0.0 mm 0.00 in0.0 mm
04:50 PM 66.4°F19.1°C 49.7°F9.8°C 55% 11.3 mph WSW18.2 kmh WSW 25.1 mph40.4 kmh 30.10 in1019.3 mb 0.00 in0.0 mm 0.00 in0.0 mm 0.00 in0.0 mm
04:55 PM 66.2°F19.0°C 50.0°F10.0°C 56% 9.0 mph WSW14.5 kmh WSW 16.8 mph27.0 kmh 30.11 in1019.6 mb 0.00 in0.0 mm 0.00 in0.0 mm 0.00 in0.0 mm
05:00 PM 66.4°F19.1°C 50.2°F10.1°C 56% 9.8 mph SW15.8 kmh SW 16.8 mph27.0 kmh 30.11 in1019.6 mb 0.00 in0.0 mm 0.00 in0.0 mm 0.00 in0.0 mm
05:05 PM 66.4°F19.1°C 49.7°F9.8°C 55% 10.6 mph WSW17.1 kmh WSW 19.0 mph30.6 kmh 30.10 in1019.3 mb 0.00 in0.0 mm 0.00 in0.0 mm 0.00 in0.0 mm
05:10 PM 66.0°F18.9°C 49.9°F9.9°C 56% 10.0 mph WSW16.1 kmh WSW 19.0 mph30.6 kmh 30.11 in1019.6 mb 0.00 in0.0 mm 0.00 in0.0 mm 0.00 in0.0 mm
05:15 PM 65.8°F18.8°C 50.2°F10.1°C 57% 9.5 mph WSW15.3 kmh WSW 18.3 mph29.5 kmh 30.10 in1019.3 mb 0.00 in0.0 mm 0.00 in0.0 mm 0.00 in0.0 mm
05:20 PM 66.2°F19.0°C 50.0°F10.0°C 56% 8.8 mph WNW14.2 kmh WNW 18.3 mph29.5 kmh 30.11 in1019.6 mb 0.00 in0.0 mm 0.00 in0.0 mm 0.00 in0.0 mm
05:25 PM 66.7°F19.3°C 50.1°F10.1°C 55% 8.6 mph WNW13.8 kmh WNW 15.9 mph25.6 kmh 30.11 in1019.6 mb 0.00 in0.0 mm 0.00 in0.0 mm 0.00 in0.0 mm
05:30 PM 67.1°F19.5°C 49.9°F9.9°C 54% 9.3 mph W15.0 kmh W 17.4 mph28.0 kmh 30.11 in1019.6 mb 0.00 in0.0 mm 0.00 in0.0 mm 0.00 in0.0 mm
05:35 PM 67.1°F19.5°C 49.9°F9.9°C 54% 8.7 mph WSW14.0 kmh WSW 17.4 mph28.0 kmh 30.11 in1019.6 mb 0.00 in0.0 mm 0.00 in0.0 mm 0.00 in0.0 mm
05:40 PM 67.3°F19.6°C 50.6°F10.3°C 55% 7.2 mph W11.6 kmh W 15.9 mph25.6 kmh 30.11 in1019.6 mb 0.00 in0.0 mm 0.00 in0.0 mm 0.00 in0.0 mm
05:45 PM 67.8°F19.9°C 50.6°F10.3°C 54% 7.2 mph W11.6 kmh W 13.6 mph21.9 kmh 30.11 in1019.6 mb 0.00 in0.0 mm 0.00 in0.0 mm 0.00 in0.0 mm
05:50 PM 67.6°F19.8°C 50.4°F10.2°C 54% 9.1 mph WSW14.6 kmh WSW 19.0 mph30.6 kmh 30.11 in1019.6 mb 0.00 in0.0 mm 0.00 in0.0 mm 0.00 in0.0 mm
05:55 PM 67.1°F19.5°C 49.9°F9.9°C 54% 9.4 mph WSW15.1 kmh WSW 19.0 mph30.6 kmh 30.11 in1019.6 mb 0.00 in0.0 mm 0.00 in0.0 mm 0.00 in0.0 mm
06:00 PM 66.6°F19.2°C 49.9°F9.9°C 55% 7.5 mph WSW12.1 kmh WSW 18.3 mph29.5 kmh 30.11 in1019.6 mb 0.00 in0.0 mm 0.00 in0.0 mm 0.00 in0.0 mm
06:05 PM 66.9°F19.4°C 50.2°F10.1°C 55% 5.8 mph WSW9.3 kmh WSW 13.0 mph20.9 kmh 30.12 in1020.0 mb 0.00 in0.0 mm 0.00 in0.0 mm 0.00 in0.0 mm
06:10 PM 67.1°F19.5°C 50.4°F10.2°C 55% 5.6 mph SW9.0 kmh SW 13.6 mph21.9 kmh 30.12 in1020.0 mb 0.00 in0.0 mm 0.00 in0.0 mm 0.00 in0.0 mm
06:15 PM 67.1°F19.5°C 50.4°F10.2°C 55% 7.6 mph SW12.2 kmh SW 16.8 mph27.0 kmh 30.12 in1020.0 mb 0.00 in0.0 mm 0.00 in0.0 mm 0.00 in0.0 mm
06:20 PM 66.6°F19.2°C 49.4°F9.7°C 54% 8.8 mph WSW14.2 kmh WSW 16.8 mph27.0 kmh 30.12 in1020.0 mb 0.00 in0.0 mm 0.00 in0.0 mm 0.00 in0.0 mm
06:25 PM 66.4°F19.1°C 49.2°F9.6°C 54% 8.0 mph W12.9 kmh W 19.7 mph31.7 kmh 30.13 in1020.3 mb 0.00 in0.0 mm 0.00 in0.0 mm 0.00 in0.0 mm
06:30 PM 66.6°F19.2°C 47.9°F8.8°C 51% 6.9 mph W11.1 kmh W 19.7 mph31.7 kmh 30.13 in1020.3 mb 0.00 in0.0 mm 0.00 in0.0 mm 0.00 in0.0 mm
06:35 PM 66.4°F19.1°C 47.2°F8.4°C 50% 6.6 mph W10.6 kmh W 15.2 mph24.5 kmh 30.13 in1020.3 mb 0.00 in0.0 mm 0.00 in0.0 mm 0.00 in0.0 mm
06:40 PM 66.2°F19.0°C 47.0°F8.3°C 50% 7.4 mph W11.9 kmh W 15.2 mph24.5 kmh 30.12 in1020.0 mb 0.00 in0.0 mm 0.00 in0.0 mm 0.00 in0.0 mm
06:45 PM 66.2°F19.0°C 47.0°F8.3°C 50% 7.0 mph SW11.3 kmh SW 15.2 mph24.5 kmh 30.13 in1020.3 mb 0.00 in0.0 mm 0.00 in0.0 mm 0.00 in0.0 mm
06:50 PM 66.0°F18.9°C 47.4°F8.6°C 51% 6.6 mph SSW10.6 kmh SSW 15.2 mph24.5 kmh 30.14 in1020.7 mb 0.00 in0.0 mm 0.00 in0.0 mm 0.00 in0.0 mm
06:55 PM 65.7°F18.7°C 47.5°F8.6°C 52% 6.1 mph NNW9.8 kmh NNW 15.2 mph24.5 kmh 30.14 in1020.7 mb 0.00 in0.0 mm 0.00 in0.0 mm 0.00 in0.0 mm
07:00 PM 65.5°F18.6°C 47.9°F8.8°C 53% 5.3 mph NW8.5 kmh NW 10.7 mph17.2 kmh 30.14 in1020.7 mb 0.00 in0.0 mm 0.00 in0.0 mm 0.00 in0.0 mm
07:05 PM 64.9°F18.3°C 47.9°F8.8°C 54% 5.4 mph NW8.7 kmh NW 11.4 mph18.3 kmh 30.14 in1020.7 mb 0.00 in0.0 mm 0.00 in0.0 mm 0.00 in0.0 mm
07:10 PM 64.8°F18.2°C 47.7°F8.7°C 54% 5.3 mph WNW8.5 kmh WNW 11.4 mph18.3 kmh 30.14 in1020.7 mb 0.00 in0.0 mm 0.00 in0.0 mm 0.00 in0.0 mm
07:15 PM 64.6°F18.1°C 48.0°F8.9°C 55% 5.5 mph WSW8.9 kmh WSW 9.8 mph15.8 kmh 30.14 in1020.7 mb 0.00 in0.0 mm 0.00 in0.0 mm 0.00 in0.0 mm
07:20 PM 64.4°F18.0°C 47.9°F8.8°C 55% 6.1 mph WSW9.8 kmh WSW 16.8 mph27.0 kmh 30.13 in1020.3 mb 0.00 in0.0 mm 0.00 in0.0 mm 0.00 in0.0 mm
07:25 PM 64.0°F17.8°C 47.5°F8.6°C 55% 6.2 mph WSW10.0 kmh WSW 16.8 mph27.0 kmh 30.14 in1020.7 mb 0.00 in0.0 mm 0.00 in0.0 mm 0.00 in0.0 mm
07:30 PM 63.7°F17.6°C 47.2°F8.4°C 55% 6.5 mph W10.5 kmh W 12.1 mph19.5 kmh 30.14 in1020.7 mb 0.00 in0.0 mm 0.00 in0.0 mm 0.00 in0.0 mm
07:35 PM 63.5°F17.5°C 47.0°F8.3°C 55% 6.6 mph WSW10.6 kmh WSW 13.0 mph20.9 kmh 30.14 in1020.7 mb 0.00 in0.0 mm 0.00 in0.0 mm 0.00 in0.0 mm
07:40 PM 63.3°F17.4°C 47.3°F8.5°C 56% 5.7 mph W9.2 kmh W 13.0 mph20.9 kmh 30.14 in1020.7 mb 0.00 in0.0 mm 0.00 in0.0 mm 0.00 in0.0 mm
07:45 PM 63.0°F17.2°C 47.5°F8.6°C 57% 5.0 mph W8.0 kmh W 9.8 mph15.8 kmh 30.14 in1020.7 mb 0.00 in0.0 mm 0.00 in0.0 mm 0.00 in0.0 mm
07:50 PM 62.6°F17.0°C 47.6°F8.7°C 58% 5.4 mph W8.7 kmh W 9.8 mph15.8 kmh 30.14 in1020.7 mb 0.00 in0.0 mm 0.00 in0.0 mm 0.00 in0.0 mm
07:55 PM 62.2°F16.8°C 47.7°F8.7°C 59% 5.5 mph W8.9 kmh W 9.8 mph15.8 kmh 30.15 in1021.0 mb 0.00 in0.0 mm 0.00 in0.0 mm 0.00 in0.0 mm
08:00 PM 61.9°F16.6°C 47.8°F8.8°C 60% 5.1 mph WSW8.2 kmh WSW 9.8 mph15.8 kmh 30.15 in1021.0 mb 0.00 in0.0 mm 0.00 in0.0 mm 0.00 in0.0 mm
08:05 PM 61.7°F16.5°C 47.7°F8.7°C 60% 5.1 mph SW8.2 kmh SW 11.4 mph18.3 kmh 30.15 in1021.0 mb 0.00 in0.0 mm 0.00 in0.0 mm 0.00 in0.0 mm
08:10 PM 61.3°F16.3°C 47.8°F8.8°C 61% 5.1 mph SW8.2 kmh SW 11.4 mph18.3 kmh 30.15 in1021.0 mb 0.00 in0.0 mm 0.00 in0.0 mm 0.00 in0.0 mm
08:15 PM 61.0°F16.1°C 47.9°F8.8°C 62% 4.5 mph SW7.2 kmh SW 8.3 mph13.4 kmh 30.15 in1021.0 mb 0.00 in0.0 mm 0.00 in0.0 mm 0.00 in0.0 mm
08:20 PM 60.6°F15.9°C 47.9°F8.8°C 63% 4.3 mph SW6.9 kmh SW 7.6 mph12.2 kmh 30.16 in1021.3 mb 0.00 in0.0 mm 0.00 in0.0 mm 0.00 in0.0 mm
08:25 PM 60.3°F15.7°C 48.0°F8.9°C 64% 4.1 mph WSW6.6 kmh WSW 7.6 mph12.2 kmh 30.16 in1021.3 mb 0.00 in0.0 mm 0.00 in0.0 mm 0.00 in0.0 mm
08:30 PM 60.1°F15.6°C 47.9°F8.8°C 64% 3.8 mph WNW6.1 kmh WNW 6.9 mph11.1 kmh 30.16 in1021.3 mb 0.00 in0.0 mm 0.00 in0.0 mm 0.00 in0.0 mm
08:35 PM 59.7°F15.4°C 47.5°F8.6°C 64% 4.0 mph WNW6.4 kmh WNW 7.6 mph12.2 kmh 30.16 in1021.3 mb 0.00 in0.0 mm 0.00 in0.0 mm 0.00 in0.0 mm
08:40 PM 59.5°F15.3°C 47.3°F8.5°C 64% 4.3 mph W6.9 kmh W 7.6 mph12.2 kmh 30.17 in1021.7 mb 0.00 in0.0 mm 0.00 in0.0 mm 0.00 in0.0 mm
08:45 PM 59.4°F15.2°C 47.6°F8.7°C 65% 4.7 mph W7.6 kmh W 9.2 mph14.8 kmh 30.17 in1021.7 mb 0.00 in0.0 mm 0.00 in0.0 mm 0.00 in0.0 mm
08:50 PM 59.2°F15.1°C 47.4°F8.6°C 65% 4.7 mph W7.6 kmh W 9.2 mph14.8 kmh 30.17 in1021.7 mb 0.00 in0.0 mm 0.00 in0.0 mm 0.00 in0.0 mm
08:55 PM 59.2°F15.1°C 47.4°F8.6°C 65% 4.8 mph W7.7 kmh W 9.8 mph15.8 kmh 30.17 in1021.7 mb 0.00 in0.0 mm 0.00 in0.0 mm 0.00 in0.0 mm
09:00 PM 59.0°F15.0°C 47.2°F8.4°C 65% 4.9 mph W7.9 kmh W 9.8 mph15.8 kmh 30.17 in1021.7 mb 0.00 in0.0 mm 0.00 in0.0 mm 0.00 in0.0 mm
09:05 PM 58.6°F14.8°C 47.3°F8.5°C 66% 4.7 mph W7.6 kmh W 9.2 mph14.8 kmh 30.18 in1022.0 mb 0.00 in0.0 mm 0.00 in0.0 mm 0.00 in0.0 mm
09:10 PM 58.6°F14.8°C 47.3°F8.5°C 66% 4.6 mph W7.4 kmh W 9.2 mph14.8 kmh 30.18 in1022.0 mb 0.00 in0.0 mm 0.00 in0.0 mm 0.00 in0.0 mm
09:15 PM 58.5°F14.7°C 47.1°F8.4°C 66% 4.0 mph WSW6.4 kmh WSW 7.6 mph12.2 kmh 30.18 in1022.0 mb 0.00 in0.0 mm 0.00 in0.0 mm 0.00 in0.0 mm
09:20 PM 58.3°F14.6°C 47.0°F8.3°C 66% 4.0 mph WSW6.4 kmh WSW 7.6 mph12.2 kmh 30.17 in1021.7 mb 0.00 in0.0 mm 0.00 in0.0 mm 0.00 in0.0 mm
09:25 PM 58.1°F14.5°C 46.8°F8.2°C 66% 4.7 mph SW7.6 kmh SW 11.4 mph18.3 kmh 30.18 in1022.0 mb 0.00 in0.0 mm 0.00 in0.0 mm 0.00 in0.0 mm
09:30 PM 57.9°F14.4°C 46.6°F8.1°C 66% 4.4 mph SW7.1 kmh SW 11.4 mph18.3 kmh 30.18 in1022.0 mb 0.00 in0.0 mm 0.00 in0.0 mm 0.00 in0.0 mm
09:35 PM 57.7°F14.3°C 46.5°F8.1°C 66% 4.1 mph W6.6 kmh W 7.6 mph12.2 kmh 30.19 in1022.4 mb 0.00 in0.0 mm 0.00 in0.0 mm 0.00 in0.0 mm
09:40 PM 57.4°F14.1°C 46.5°F8.1°C 67% 5.4 mph WNW8.7 kmh WNW 10.7 mph17.2 kmh 30.19 in1022.4 mb 0.00 in0.0 mm 0.00 in0.0 mm 0.00 in0.0 mm
09:45 PM 57.4°F14.1°C 46.5°F8.1°C 67% 5.9 mph W9.5 kmh W 10.7 mph17.2 kmh 30.19 in1022.4 mb 0.00 in0.0 mm 0.00 in0.0 mm 0.00 in0.0 mm
09:50 PM 57.4°F14.1°C 46.1°F7.8°C 66% 5.0 mph W8.0 kmh W 9.2 mph14.8 kmh 30.19 in1022.4 mb 0.00 in0.0 mm 0.00 in0.0 mm 0.00 in0.0 mm
09:55 PM 57.2°F14.0°C 46.3°F7.9°C 67% 4.9 mph W7.9 kmh W 8.3 mph13.4 kmh 30.19 in1022.4 mb 0.00 in0.0 mm 0.00 in0.0 mm 0.00 in0.0 mm
10:00 PM 57.0°F13.9°C 46.6°F8.1°C 68% 4.8 mph WSW7.7 kmh WSW 8.3 mph13.4 kmh 30.20 in1022.7 mb 0.00 in0.0 mm 0.00 in0.0 mm 0.00 in0.0 mm
10:05 PM 56.8°F13.8°C 46.4°F8.0°C 68% 4.9 mph WSW7.9 kmh WSW 9.8 mph15.8 kmh 30.19 in1022.4 mb 0.00 in0.0 mm 0.00 in0.0 mm 0.00 in0.0 mm
10:10 PM 56.7°F13.7°C 46.6°F8.1°C 69% 5.3 mph WSW8.5 kmh WSW 9.8 mph15.8 kmh 30.19 in1022.4 mb 0.00 in0.0 mm 0.00 in0.0 mm 0.00 in0.0 mm
10:15 PM 56.5°F13.6°C 46.8°F8.2°C 70% 5.2 mph W8.4 kmh W 12.1 mph19.5 kmh 30.20 in1022.7 mb 0.00 in0.0 mm 0.00 in0.0 mm 0.00 in0.0 mm
10:20 PM 56.3°F13.5°C 46.6°F8.1°C 70% 4.7 mph WNW7.6 kmh WNW 12.1 mph19.5 kmh 30.20 in1022.7 mb 0.00 in0.0 mm 0.00 in0.0 mm 0.00 in0.0 mm
10:25 PM 55.9°F13.3°C 46.3°F7.9°C 70% 4.1 mph WSW6.6 kmh WSW 9.2 mph14.8 kmh 30.19 in1022.4 mb 0.00 in0.0 mm 0.00 in0.0 mm 0.00 in0.0 mm
10:30 PM 55.8°F13.2°C 46.5°F8.1°C 71% 4.3 mph WSW6.9 kmh WSW 9.8 mph15.8 kmh 30.19 in1022.4 mb 0.00 in0.0 mm 0.00 in0.0 mm 0.00 in0.0 mm
10:35 PM 55.6°F13.1°C 46.3°F7.9°C 71% 4.3 mph WSW6.9 kmh WSW 9.8 mph15.8 kmh 30.19 in1022.4 mb 0.00 in0.0 mm 0.00 in0.0 mm 0.00 in0.0 mm
10:40 PM 55.4°F13.0°C 46.5°F8.1°C 72% 4.4 mph SW7.1 kmh SW 7.6 mph12.2 kmh 30.20 in1022.7 mb 0.00 in0.0 mm 0.00 in0.0 mm 0.00 in0.0 mm
10:45 PM 55.4°F13.0°C 46.5°F8.1°C 72% 4.3 mph WSW6.9 kmh WSW 7.6 mph12.2 kmh 30.20 in1022.7 mb 0.00 in0.0 mm 0.00 in0.0 mm 0.00 in0.0 mm
10:50 PM 55.2°F12.9°C 46.3°F7.9°C 72% 4.2 mph WSW6.8 kmh WSW 7.6 mph12.2 kmh 30.20 in1022.7 mb 0.00 in0.0 mm 0.00 in0.0 mm 0.00 in0.0 mm
10:55 PM 55.0°F12.8°C 46.2°F7.9°C 72% 4.4 mph SW7.1 kmh SW 8.3 mph13.4 kmh 30.20 in1022.7 mb 0.00 in0.0 mm 0.00 in0.0 mm 0.00 in0.0 mm
11:00 PM 54.9°F12.7°C 46.0°F7.8°C 72% 4.6 mph WSW7.4 kmh WSW 8.3 mph13.4 kmh 30.20 in1022.7 mb 0.00 in0.0 mm 0.00 in0.0 mm 0.00 in0.0 mm
11:05 PM 54.9°F12.7°C 46.4°F8.0°C 73% 4.9 mph W7.9 kmh W 8.3 mph13.4 kmh 30.20 in1022.7 mb 0.00 in0.0 mm 0.00 in0.0 mm 0.00 in0.0 mm
11:10 PM 54.7°F12.6°C 46.2°F7.9°C 73% 4.7 mph WSW7.6 kmh WSW 8.3 mph13.4 kmh 30.20 in1022.7 mb 0.00 in0.0 mm 0.00 in0.0 mm 0.00 in0.0 mm
11:15 PM 54.5°F12.5°C 46.0°F7.8°C 73% 4.6 mph WSW7.4 kmh WSW 9.2 mph14.8 kmh 30.20 in1022.7 mb 0.00 in0.0 mm 0.00 in0.0 mm 0.00 in0.0 mm
11:20 PM 54.3°F12.4°C 46.2°F7.9°C 74% 4.6 mph WSW7.4 kmh WSW 9.2 mph14.8 kmh 30.20 in1022.7 mb 0.00 in0.0 mm 0.00 in0.0 mm 0.00 in0.0 mm
11:25 PM 54.1°F12.3°C 46.0°F7.8°C 74% 4.3 mph W6.9 kmh W 8.3 mph13.4 kmh 30.20 in1022.7 mb 0.00 in0.0 mm 0.00 in0.0 mm 0.00 in0.0 mm
11:30 PM 54.0°F12.2°C 45.9°F7.7°C 74% 4.2 mph WSW6.8 kmh WSW 8.3 mph13.4 kmh 30.20 in1022.7 mb 0.00 in0.0 mm 0.00 in0.0 mm 0.00 in0.0 mm
11:35 PM 54.0°F12.2°C 45.9°F7.7°C 74% 4.1 mph WSW6.6 kmh WSW 8.3 mph13.4 kmh 30.21 in1023.0 mb 0.00 in0.0 mm 0.00 in0.0 mm 0.00 in0.0 mm
11:40 PM 53.8°F12.1°C 46.0°F7.8°C 75% 4.0 mph W6.4 kmh W 7.6 mph12.2 kmh 30.21 in1023.0 mb 0.00 in0.0 mm 0.00 in0.0 mm 0.00 in0.0 mm
11:45 PM 53.6°F12.0°C 45.9°F7.7°C 75% 3.9 mph W6.3 kmh W 6.9 mph11.1 kmh 30.21 in1023.0 mb 0.00 in0.0 mm 0.00 in0.0 mm 0.00 in0.0 mm
11:50 PM 53.4°F11.9°C 46.4°F8.0°C 77% 3.8 mph W6.1 kmh W 7.6 mph12.2 kmh 30.21 in1023.0 mb 0.00 in0.0 mm 0.00 in0.0 mm 0.00 in0.0 mm
11:55 PM 53.4°F11.9°C 46.4°F8.0°C 77% 3.4 mph WNW5.5 kmh WNW 7.6 mph12.2 kmh 30.20 in1022.7 mb 0.00 in0.0 mm 0.00 in0.0 mm 0.00 in0.0 mm